Weather observations for the past three days for
Albert Whitted Airport
Metric (Imperial)
Date Time (edt) Wind (kph) Vis. (km) Weather Sky Cond. Temperature (ºC) Relative Humidity Wind Chill (°C) Heat Index (°C) Pressure Precipitation (cm)
Air Dwpt 6 hour altimeter (cm) sea level (mb) 1 hr 3 hr 6 hr
Max. Min.
06 11:53 N 13 16.09 Thunderstorm in Vicinity FEW025 BKN029 OVC050 27.8 24.4 82% 32 76.05 1013.7
06 10:53 E 11 1.21 Thunderstorm in Vicinity Heavy Rain FEW028 BKN033 OVC060 27.2 23.9 82% 30 76.02 1013.6 0.3 0.3
06 09:53 Vrbl 7 16.09 Partly Cloudy SCT027 30.6 24.4 70% 36 76.02 1013.6
06 08:53 Calm 16.09 Fair CLR 29.4 24.4 75% 35 76 1013.2
06 07:53 Calm 16.09 A Few Clouds FEW034 28.9 25 29.4 27.8 80% 34 75.97 1012.6
06 06:53 N 6 16.09 Fair CLR 28.3 25 82% 33 75.92 1011.9
06 05:53 N 6 16.09 Fair CLR 28.9 25 80% 34 75.84 1011.2
06 04:53 SW 6 16.09 Fair CLR 28.3 25.6 85% 34 75.82 1010.7
06 03:53 SW 6 16.09 Fair CLR 28.3 25 82% 33 75.82 1010.8
06 02:53 N 6 16.09 Fair CLR 28.9 25 80% 34 75.87 1011.5
06 01:53 N 6 16.09 Partly Cloudy SCT023 29.4 25 30.6 28.9 77% 35 75.95 1012.4
06 00:53 W 6 16.09 Fair CLR 29.4 25 77% 35 75.95 1012.5
05 23:53 Calm 16.09 Fair CLR 29.4 24.4 75% 35 75.97 1012.8
05 22:53 S 6 16.09 Fair CLR 29.4 24.4 75% 35 75.97 1012.8
05 21:53 Calm 16.09 Fair CLR 30 24.4 72% 36 75.97 1012.6
05 20:53 NW 9 16.09 Fair CLR 30 24.4 72% 36 75.92 1012.1
05 19:53 NW 13 16.09 Fair CLR 30.6 23.9 32.2 30.6 67% 36 75.92 1012.1
05 18:53 N 17 16.09 Fair CLR 31.1 23.9 66% 37 75.92 1012.2
05 17:53 Vrbl 7 16.09 Fair CLR 31.7 23.3 61% 37 75.92 1012.1
05 16:53 W 19 16.09 A Few Clouds FEW037 31.7 24.4 65% 38 75.92 1012.2
05 13:53 W 19 G 28 16.09 A Few Clouds FEW036 31.7 23.9 32.2 28.3 63% 37 76 1013.3
05 12:53 SW 11 16.09 Fair CLR 31.7 23.9 63% 37 76.05 1013.9
05 11:53 W 11 16.09 Fair CLR 31.1 23.9 66% 37 76.1 1014.5
05 10:53 S 13 16.09 Overcast BKN021 OVC027 30.6 26.1 77% 39 76.1 1014.4
05 09:53 Calm 16.09 Overcast BKN021 BKN033 OVC045 29.4 25.6 80% 36 76.1 1014.3
05 08:53 SW 9 16.09 Fair CLR 29.4 25.6 80% 36 76.07 1014.2
05 07:53 Vrbl 6 16.09 Fair CLR 28.3 26.1 28.9 27.8 88% 34 76.07 1014.1
05 06:53 S 13 16.09 Fair CLR 27.8 25.6 88% 33 76.05 1013.7
05 05:53 S 13 16.09 A Few Clouds FEW023 28.3 25.6 85% 34 76.02 1013.4
05 04:53 S 13 16.09 Fair CLR 28.3 26.1 88% 34 76 1013.0
05 03:53 SE 15 16.09 Fair CLR 28.3 25.6 85% 34 76 1013.0
05 02:53 SE 17 16.09 Partly Cloudy SCT019 28.3 25.6 85% 34 76 1013.2
05 01:53 SE 13 16.09 Mostly Cloudy BKN022 BKN028 28.9 26.1 30.6 28.9 85% 36 76.05 1013.7
05 00:53 Calm 16.09 Fair CLR 29.4 25.6 80% 36 76.07 1014.2
04 23:53 Calm 16.09 Fair CLR 29.4 25 77% 35 76.1 1014.4
04 22:53 Calm 16.09 Fair CLR 30 25 75% 36 76.12 1014.7
04 21:53 W 7 16.09 Fair CLR 30 25 75% 36 76.1 1014.6
04 20:53 Vrbl 6 16.09 Fair CLR 30.6 24.4 70% 36 76.1 1014.3
04 19:53 W 11 16.09 Fair CLR 30.6 24.4 32.2 30.6 70% 36 76.07 1014.2
04 18:53 W 9 16.09 Fair CLR 31.1 25 70% 38 76.02 1013.4
04 17:53 W 17 16.09 Fair CLR 31.1 24.4 68% 37 76.02 1013.4
04 16:53 SW 19 G 30 16.09 A Few Clouds FEW031 31.7 24.4 65% 38 76 1012.9
04 15:53 W 19 16.09 Partly Cloudy SCT031 31.7 25 68% 39 76.02 1013.5
04 14:53 SW 20 G 30 16.09 A Few Clouds FEW031 FEW042 32.2 24.4 63% 39 76.07 1014.0
04 13:53 SW 15 16.09 Fair CLR 32.2 24.4 32.8 27.8 63% 39 76.12 1014.7
04 12:53 SW 15 16.09 A Few Clouds FEW034 31.7 23.9 63% 37 76.15 1015.3
04 11:53 S 13 16.09 A Few Clouds FEW028 31.1 25.6 73% 39 76.17 1015.6
04 10:53 S 15 16.09 A Few Clouds FEW018 30.6 25.6 75% 38 76.15 1015.1
04 09:53 SE 7 16.09 Fair CLR 29.4 26.1 82% 36 76.15 1015.1
04 08:53 S 11 16.09 Fair CLR 28.3 26.1 88% 34 76.1 1014.5
04 07:53 S 13 16.09 Fair CLR 27.8 25.6 27.8 26.7 88% 33 76.07 1014.2
04 06:53 S 15 16.09 Mostly Cloudy BKN100 27.2 25.6 91% 31 76.02 1013.6
04 05:53 S 17 16.09 A Few Clouds FEW085 27.2 25.6 91% 31 76 1013.2
04 04:53 S 15 16.09 Fair CLR 27.2 25.6 91% 31 75.97 1012.8
04 03:53 SE 11 16.09 Fair CLR 26.7 25 90% 30 76 1013.0
04 02:53 SE 17 16.09 Fair CLR 26.7 25 90% 30 76 1013.0
04 01:53 SE 24 16.09 Fair CLR 26.7 25 28.3 26.7 90% 30 76.02 1013.3
04 00:53 SE 28 16.09 Fair CLR 27.2 25.6 91% 31 76.02 1013.4
03 23:53 SE 22 16.09 A Few Clouds FEW028 27.2 25 88% 31 76.05 1013.7
03 22:53 SE 19 16.09 Fair CLR 27.2 24.4 85% 31 76.05 1013.9
03 21:53 SE 19 16.09 Light Rain BKN017 OVC025 27.8 25 85% 32 76.05 1013.6
03 20:53 E 13 16.09 Thunderstorm SCT027 27.8 25.6 88% 33 76 1013.2
03 19:53 Calm 16.09 Fair CLR 30 24.4 31.7 28.9 72% 36 76 1013.0
03 18:53 SW 9 16.09 Fair CLR 30 25 75% 36 75.95 1012.5
03 17:53 SW 7 16.09 A Few Clouds FEW075 30 25 75% 36 75.92 1012.1
03 16:53 SW 7 16.09 Fair CLR 30.6 25 72% 37 75.92 1012.0
03 15:53 SW 11 16.09 Fair CLR 29.4 25.6 80% 36 75.95 1012.5
03 14:53 E 7 16.09 Thunderstorm in Vicinity CLR 31.1 24.4 68% 37 76 1013.0
03 13:53 E 6 16.09 Fair CLR 31.1 25 31.1 26.7 70% 38 76.02 1013.6
03 12:53 SE 7 16.09 Partly Cloudy SCT012 30.6 25 72% 37 76.07 1014.2
Date Time (edt) Wind (kph) Vis. (km) Weather Sky Cond. Air Dwpt Max. Min. Relative Humidity Wind Chill (°C) Heat Index (°C) altimeter (cm) sea level (mb) 1 hr 3 hr 6 hr
6 hour
Temperature (ºC) Pressure Precipitation (cm)